sensor_id;sensor_type;location;lat;lon;timestamp;pressure;altitude;pressure_sealevel;temperature;humidity
6859;BME280;3468;42.824;23.240;2024-02-23T00:01:24;68215.56;;;7.95;100.00
6859;BME280;3468;42.824;23.240;2024-02-23T00:03:51;68243.63;;;7.98;100.00
6859;BME280;3468;42.824;23.240;2024-02-23T00:06:18;68208.72;;;8.11;100.00
6859;BME280;3468;42.824;23.240;2024-02-23T00:08:44;68214.94;;;8.12;100.00
6859;BME280;3468;42.824;23.240;2024-02-23T00:11:11;68227.38;;;8.08;100.00
6859;BME280;3468;42.824;23.240;2024-02-23T00:13:38;68220.88;;;8.15;100.00
6859;BME280;3468;42.824;23.240;2024-02-23T00:16:06;68230.97;;;8.15;100.00
6859;BME280;3468;42.824;23.240;2024-02-23T00:18:33;68218.72;;;8.18;100.00
6859;BME280;3468;42.824;23.240;2024-02-23T00:20:59;68230.53;;;8.19;100.00
6859;BME280;3468;42.824;23.240;2024-02-23T00:23:26;68218.03;;;8.23;100.00
6859;BME280;3468;42.824;23.240;2024-02-23T00:25:54;68254.75;;;8.23;100.00
6859;BME280;3468;42.824;23.240;2024-02-23T00:28:21;68262.88;;;8.23;100.00
6859;BME280;3468;42.824;23.240;2024-02-23T00:30:48;68226.19;;;8.24;100.00
6859;BME280;3468;42.824;23.240;2024-02-23T00:33:16;68257.81;;;8.23;100.00
6859;BME280;3468;42.824;23.240;2024-02-23T00:35:43;68240.03;;;8.19;100.00
6859;BME280;3468;42.824;23.240;2024-02-23T00:38:09;68240.16;;;8.23;100.00
6859;BME280;3468;42.824;23.240;2024-02-23T00:40:36;68207.59;;;8.21;100.00
6859;BME280;3468;42.824;23.240;2024-02-23T00:43:03;68198.25;;;8.09;100.00
6859;BME280;3468;42.824;23.240;2024-02-23T00:45:30;68248.06;;;8.15;100.00
6859;BME280;3468;42.824;23.240;2024-02-23T00:47:57;68262.16;;;8.18;100.00
6859;BME280;3468;42.824;23.240;2024-02-23T00:50:25;68266.41;;;8.20;100.00
6859;BME280;3468;42.824;23.240;2024-02-23T00:52:52;68259.41;;;8.20;100.00
6859;BME280;3468;42.824;23.240;2024-02-23T00:55:19;68200.69;;;8.15;100.00
6859;BME280;3468;42.824;23.240;2024-02-23T00:57:46;68229.25;;;8.14;100.00
6859;BME280;3468;42.824;23.240;2024-02-23T01:00:13;68216.03;;;8.02;100.00
6859;BME280;3468;42.824;23.240;2024-02-23T01:02:39;68229.34;;;8.07;100.00
6859;BME280;3468;42.824;23.240;2024-02-23T01:05:06;68231.16;;;8.02;100.00
6859;BME280;3468;42.824;23.240;2024-02-23T01:07:36;68224.97;;;8.01;100.00
6859;BME280;3468;42.824;23.240;2024-02-23T01:10:03;68205.25;;;7.97;100.00
6859;BME280;3468;42.824;23.240;2024-02-23T01:12:30;68216.69;;;7.96;100.00
6859;BME280;3468;42.824;23.240;2024-02-23T01:14:56;68241.34;;;7.96;100.00
6859;BME280;3468;42.824;23.240;2024-02-23T01:17:23;68232.97;;;7.97;100.00
6859;BME280;3468;42.824;23.240;2024-02-23T01:19:50;68220.16;;;7.99;100.00
6859;BME280;3468;42.824;23.240;2024-02-23T01:22:17;68254.28;;;7.98;100.00
6859;BME280;3468;42.824;23.240;2024-02-23T01:24:45;68238.25;;;7.95;100.00
6859;BME280;3468;42.824;23.240;2024-02-23T01:27:12;68211.75;;;7.90;100.00
6859;BME280;3468;42.824;23.240;2024-02-23T01:29:38;68216.44;;;7.87;100.00
6859;BME280;3468;42.824;23.240;2024-02-23T01:32:05;68185.25;;;7.84;100.00
6859;BME280;3468;42.824;23.240;2024-02-23T01:34:32;68190.88;;;7.85;100.00
6859;BME280;3468;42.824;23.240;2024-02-23T01:37:00;68210.25;;;7.86;100.00
6859;BME280;3468;42.824;23.240;2024-02-23T01:39:26;68226.66;;;7.92;100.00
6859;BME280;3468;42.824;23.240;2024-02-23T01:41:54;68169.91;;;7.76;100.00
6859;BME280;3468;42.824;23.240;2024-02-23T01:44:21;68209.59;;;7.92;100.00
6859;BME280;3468;42.824;23.240;2024-02-23T01:46:48;68220.63;;;8.06;100.00
6859;BME280;3468;42.824;23.240;2024-02-23T01:49:16;68239.63;;;8.05;100.00
6859;BME280;3468;42.824;23.240;2024-02-23T01:51:43;68183.00;;;8.04;100.00
6859;BME280;3468;42.824;23.240;2024-02-23T01:54:10;68207.78;;;8.08;100.00
6859;BME280;3468;42.824;23.240;2024-02-23T01:56:37;68225.66;;;8.06;100.00
6859;BME280;3468;42.824;23.240;2024-02-23T01:59:07;68224.50;;;8.05;100.00
6859;BME280;3468;42.824;23.240;2024-02-23T02:01:36;68211.25;;;8.11;100.00
6859;BME280;3468;42.824;23.240;2024-02-23T02:04:03;68228.06;;;8.02;100.00
6859;BME280;3468;42.824;23.240;2024-02-23T02:06:30;68257.09;;;8.07;100.00
6859;BME280;3468;42.824;23.240;2024-02-23T02:08:57;68126.31;;;7.49;100.00
6859;BME280;3468;42.824;23.240;2024-02-23T02:11:23;68200.19;;;7.97;100.00
6859;BME280;3468;42.824;23.240;2024-02-23T02:13:50;68193.66;;;7.94;100.00
6859;BME280;3468;42.824;23.240;2024-02-23T02:16:18;68199.13;;;7.90;100.00
6859;BME280;3468;42.824;23.240;2024-02-23T02:18:45;68212.44;;;7.84;100.00
6859;BME280;3468;42.824;23.240;2024-02-23T02:21:12;68194.09;;;7.79;100.00
6859;BME280;3468;42.824;23.240;2024-02-23T02:23:39;68205.66;;;7.72;100.00
6859;BME280;3468;42.824;23.240;2024-02-23T02:26:05;68198.28;;;7.59;100.00
6859;BME280;3468;42.824;23.240;2024-02-23T02:28:32;68174.44;;;7.58;100.00
6859;BME280;3468;42.824;23.240;2024-02-23T02:30:59;68130.31;;;7.52;100.00
6859;BME280;3468;42.824;23.240;2024-02-23T02:33:27;68156.28;;;7.40;100.00
6859;BME280;3468;42.824;23.240;2024-02-23T02:35:54;68176.94;;;7.47;100.00
6859;BME280;3468;42.824;23.240;2024-02-23T02:38:21;68213.94;;;7.48;100.00
6859;BME280;3468;42.824;23.240;2024-02-23T02:40:47;68181.25;;;7.42;100.00
6859;BME280;3468;42.824;23.240;2024-02-23T02:43:14;68207.31;;;7.51;100.00
6859;BME280;3468;42.824;23.240;2024-02-23T02:45:41;68213.25;;;7.54;100.00
6859;BME280;3468;42.824;23.240;2024-02-23T02:48:08;68153.94;;;7.55;100.00
6859;BME280;3468;42.824;23.240;2024-02-23T02:50:36;68202.38;;;7.56;100.00
6859;BME280;3468;42.824;23.240;2024-02-23T02:53:02;68209.59;;;7.53;100.00
6859;BME280;3468;42.824;23.240;2024-02-23T02:55:29;68181.78;;;7.60;100.00
6859;BME280;3468;42.824;23.240;2024-02-23T02:57:56;68147.97;;;7.13;100.00
6859;BME280;3468;42.824;23.240;2024-02-23T03:00:24;68168.16;;;7.63;100.00
6859;BME280;3468;42.824;23.240;2024-02-23T03:02:51;68223.72;;;7.68;100.00
6859;BME280;3468;42.824;23.240;2024-02-23T03:05:17;68181.19;;;7.59;100.00
6859;BME280;3468;42.824;23.240;2024-02-23T03:07:45;68192.78;;;7.63;100.00
6859;BME280;3468;42.824;23.240;2024-02-23T03:10:12;68223.81;;;7.61;100.00
6859;BME280;3468;42.824;23.240;2024-02-23T03:12:39;68194.03;;;7.57;100.00
6859;BME280;3468;42.824;23.240;2024-02-23T03:15:05;68189.78;;;7.56;100.00
6859;BME280;3468;42.824;23.240;2024-02-23T03:17:32;68209.72;;;7.58;100.00
6859;BME280;3468;42.824;23.240;2024-02-23T03:19:59;68178.91;;;7.57;100.00
6859;BME280;3468;42.824;23.240;2024-02-23T03:22:26;68171.56;;;7.55;100.00
6859;BME280;3468;42.824;23.240;2024-02-23T03:24:54;68186.69;;;7.55;100.00
6859;BME280;3468;42.824;23.240;2024-02-23T03:27:28;68147.41;;;7.52;100.00
6859;BME280;3468;42.824;23.240;2024-02-23T03:29:55;68149.34;;;7.51;100.00
6859;BME280;3468;42.824;23.240;2024-02-23T03:32:22;68208.00;;;7.56;100.00
6859;BME280;3468;42.824;23.240;2024-02-23T03:34:49;68178.56;;;7.55;100.00
6859;BME280;3468;42.824;23.240;2024-02-23T03:37:15;68195.41;;;7.56;100.00
6859;BME280;3468;42.824;23.240;2024-02-23T03:39:42;68177.44;;;7.65;100.00
6859;BME280;3468;42.824;23.240;2024-02-23T03:42:10;68162.84;;;7.54;100.00
6859;BME280;3468;42.824;23.240;2024-02-23T03:44:37;68183.06;;;7.65;100.00
6859;BME280;3468;42.824;23.240;2024-02-23T03:47:03;68172.41;;;7.65;100.00
6859;BME280;3468;42.824;23.240;2024-02-23T03:49:30;68185.34;;;7.67;100.00
6859;BME280;3468;42.824;23.240;2024-02-23T03:51:57;68202.66;;;7.65;100.00
6859;BME280;3468;42.824;23.240;2024-02-23T03:54:23;68179.16;;;7.66;100.00
6859;BME280;3468;42.824;23.240;2024-02-23T03:56:50;68206.78;;;7.73;100.00
6859;BME280;3468;42.824;23.240;2024-02-23T03:59:18;68154.78;;;7.76;100.00
6859;BME280;3468;42.824;23.240;2024-02-23T04:01:45;68198.88;;;7.70;100.00
6859;BME280;3468;42.824;23.240;2024-02-23T04:04:12;68188.22;;;7.70;100.00
6859;BME280;3468;42.824;23.240;2024-02-23T04:06:39;68158.41;;;7.66;100.00
6859;BME280;3468;42.824;23.240;2024-02-23T04:09:05;68187.53;;;7.65;100.00
6859;BME280;3468;42.824;23.240;2024-02-23T04:11:34;68195.88;;;7.63;100.00
6859;BME280;3468;42.824;23.240;2024-02-23T04:14:01;68183.84;;;7.64;100.00
6859;BME280;3468;42.824;23.240;2024-02-23T04:16:31;68188.34;;;7.35;100.00
6859;BME280;3468;42.824;23.240;2024-02-23T04:18:58;68195.41;;;7.56;100.00
6859;BME280;3468;42.824;23.240;2024-02-23T04:21:25;68144.88;;;7.52;100.00
6859;BME280;3468;42.824;23.240;2024-02-23T04:23:52;68189.75;;;7.45;100.00
6859;BME280;3468;42.824;23.240;2024-02-23T04:26:19;68163.41;;;7.44;100.00
6859;BME280;3468;42.824;23.240;2024-02-23T04:28:45;68190.41;;;7.39;100.00
6859;BME280;3468;42.824;23.240;2024-02-23T04:31:12;68137.03;;;7.32;100.00
6859;BME280;3468;42.824;23.240;2024-02-23T04:33:40;68156.03;;;7.31;100.00
6859;BME280;3468;42.824;23.240;2024-02-23T04:36:07;68150.09;;;7.28;100.00
6859;BME280;3468;42.824;23.240;2024-02-23T04:38:34;68152.81;;;7.26;100.00
6859;BME280;3468;42.824;23.240;2024-02-23T04:41:03;68153.72;;;7.18;100.00
6859;BME280;3468;42.824;23.240;2024-02-23T04:43:30;68120.19;;;7.20;100.00
6859;BME280;3468;42.824;23.240;2024-02-23T04:45:57;68144.78;;;7.19;100.00
6859;BME280;3468;42.824;23.240;2024-02-23T04:48:23;68142.38;;;7.13;100.00
6859;BME280;3468;42.824;23.240;2024-02-23T04:50:52;68149.44;;;7.06;100.00
6859;BME280;3468;42.824;23.240;2024-02-23T04:53:18;68147.72;;;7.04;100.00
6859;BME280;3468;42.824;23.240;2024-02-23T04:55:45;68139.41;;;6.89;100.00
6859;BME280;3468;42.824;23.240;2024-02-23T04:58:12;68154.91;;;7.02;100.00
6859;BME280;3468;42.824;23.240;2024-02-23T05:00:39;68140.69;;;6.94;100.00
6859;BME280;3468;42.824;23.240;2024-02-23T05:03:05;68126.63;;;7.01;100.00
6859;BME280;3468;42.824;23.240;2024-02-23T05:05:32;68082.91;;;6.98;100.00
6859;BME280;3468;42.824;23.240;2024-02-23T05:08:00;68119.19;;;6.95;100.00
6859;BME280;3468;42.824;23.240;2024-02-23T05:10:27;68138.19;;;6.94;100.00
6859;BME280;3468;42.824;23.240;2024-02-23T05:12:54;68132.00;;;6.93;100.00
6859;BME280;3468;42.824;23.240;2024-02-23T05:15:21;68117.34;;;6.89;100.00
6859;BME280;3468;42.824;23.240;2024-02-23T05:17:47;68361.16;;;6.63;100.00
6859;BME280;3468;42.824;23.240;2024-02-23T05:20:14;68110.81;;;6.86;100.00
6859;BME280;3468;42.824;23.240;2024-02-23T05:22:41;68148.78;;;6.84;100.00
6859;BME280;3468;42.824;23.240;2024-02-23T05:25:09;68122.47;;;6.83;100.00
6859;BME280;3468;42.824;23.240;2024-02-23T05:27:36;68120.09;;;6.70;100.00
6859;BME280;3468;42.824;23.240;2024-02-23T05:30:04;68124.19;;;6.84;100.00
6859;BME280;3468;42.824;23.240;2024-02-23T05:32:32;68129.88;;;7.06;100.00
6859;BME280;3468;42.824;23.240;2024-02-23T05:34:58;68185.81;;;7.63;100.00
6859;BME280;3468;42.824;23.240;2024-02-23T05:37:25;68250.50;;;8.21;100.00
6859;BME280;3468;42.824;23.240;2024-02-23T05:39:52;68297.84;;;8.81;100.00
6859;BME280;3468;42.824;23.240;2024-02-23T05:42:20;68282.59;;;9.20;100.00
6859;BME280;3468;42.824;23.240;2024-02-23T05:44:47;68337.19;;;9.56;100.00
6859;BME280;3468;42.824;23.240;2024-02-23T05:47:14;68431.59;;;10.53;100.00
6859;BME280;3468;42.824;23.240;2024-02-23T05:49:41;68490.03;;;11.16;94.42
6859;BME280;3468;42.824;23.240;2024-02-23T05:52:08;68555.72;;;11.29;93.34
6859;BME280;3468;42.824;23.240;2024-02-23T05:54:35;68522.38;;;11.48;91.79
6859;BME280;3468;42.824;23.240;2024-02-23T05:57:01;68583.28;;;12.07;91.02
6859;BME280;3468;42.824;23.240;2024-02-23T05:59:30;68688.28;;;13.17;86.19
6859;BME280;3468;42.824;23.240;2024-02-23T06:01:57;68823.78;;;14.33;81.58
6859;BME280;3468;42.824;23.240;2024-02-23T06:04:24;68899.66;;;15.37;76.39
6859;BME280;3468;42.824;23.240;2024-02-23T06:06:50;69007.53;;;16.10;69.16
6859;BME280;3468;42.824;23.240;2024-02-23T06:09:17;69064.09;;;16.99;65.10
6859;BME280;3468;42.824;23.240;2024-02-23T06:11:44;69158.59;;;17.63;61.41
6859;BME280;3468;42.824;23.240;2024-02-23T06:14:11;69166.59;;;18.11;59.91
6859;BME280;3468;42.824;23.240;2024-02-23T06:16:39;69240.66;;;18.59;57.13
6859;BME280;3468;42.824;23.240;2024-02-23T06:19:06;69261.75;;;18.75;55.99
6859;BME280;3468;42.824;23.240;2024-02-23T06:21:33;69272.56;;;19.06;55.88
6859;BME280;3468;42.824;23.240;2024-02-23T06:24:00;69306.75;;;19.20;54.65
6859;BME280;3468;42.824;23.240;2024-02-23T06:26:26;69271.94;;;19.21;54.47
6859;BME280;3468;42.824;23.240;2024-02-23T06:28:53;69269.03;;;18.99;54.62
6859;BME280;3468;42.824;23.240;2024-02-23T06:31:20;69235.78;;;18.57;55.19
6859;BME280;3468;42.824;23.240;2024-02-23T06:33:48;69233.09;;;18.33;55.82
6859;BME280;3468;42.824;23.240;2024-02-23T06:36:16;69204.22;;;18.28;56.10
6859;BME280;3468;42.824;23.240;2024-02-23T06:38:43;69228.13;;;18.26;56.18
6859;BME280;3468;42.824;23.240;2024-02-23T06:41:11;69157.09;;;17.90;57.20
6859;BME280;3468;42.824;23.240;2024-02-23T06:43:37;69154.13;;;17.68;57.55
6859;BME280;3468;42.824;23.240;2024-02-23T06:46:06;69118.22;;;17.48;58.41
6859;BME280;3468;42.824;23.240;2024-02-23T06:48:33;69076.25;;;17.25;59.93
6859;BME280;3468;42.824;23.240;2024-02-23T06:51:01;69082.53;;;17.11;60.41
6859;BME280;3468;42.824;23.240;2024-02-23T06:53:28;69058.50;;;16.73;60.71
6859;BME280;3468;42.824;23.240;2024-02-23T06:55:55;69049.75;;;16.61;60.46
6859;BME280;3468;42.824;23.240;2024-02-23T06:58:24;68976.34;;;16.13;61.71
6859;BME280;3468;42.824;23.240;2024-02-23T07:00:51;68951.03;;;15.96;62.84
6859;BME280;3468;42.824;23.240;2024-02-23T07:03:17;68967.50;;;15.82;63.47
6859;BME280;3468;42.824;23.240;2024-02-23T07:05:44;68960.09;;;15.80;63.93
6859;BME280;3468;42.824;23.240;2024-02-23T07:08:14;68960.09;;;15.80;63.51
6859;BME280;3468;42.824;23.240;2024-02-23T07:10:40;68953.69;;;15.85;63.30
6859;BME280;3468;42.824;23.240;2024-02-23T07:13:07;68948.47;;;15.66;63.10
6859;BME280;3468;42.824;23.240;2024-02-23T07:15:34;68946.63;;;15.60;64.92
6859;BME280;3468;42.824;23.240;2024-02-23T07:18:03;68980.69;;;15.73;64.54
6859;BME280;3468;42.824;23.240;2024-02-23T07:20:29;68942.53;;;15.67;64.61
6859;BME280;3468;42.824;23.240;2024-02-23T07:22:56;68925.22;;;15.83;63.65
6859;BME280;3468;42.824;23.240;2024-02-23T07:25:24;68956.06;;;15.92;62.96
6859;BME280;3468;42.824;23.240;2024-02-23T07:27:51;68983.38;;;16.09;62.87
6859;BME280;3468;42.824;23.240;2024-02-23T07:30:18;68993.47;;;16.30;61.30
6859;BME280;3468;42.824;23.240;2024-02-23T07:32:45;69012.44;;;16.42;61.49
6859;BME280;3468;42.824;23.240;2024-02-23T07:35:12;69042.16;;;16.65;61.83
6859;BME280;3468;42.824;23.240;2024-02-23T07:37:39;69043.38;;;17.01;60.21
6859;BME280;3468;42.824;23.240;2024-02-23T07:40:07;69078.72;;;17.05;59.43
6859;BME280;3468;42.824;23.240;2024-02-23T07:42:35;69090.97;;;17.20;58.87
6859;BME280;3468;42.824;23.240;2024-02-23T07:45:02;69112.03;;;17.21;59.07
6859;BME280;3468;42.824;23.240;2024-02-23T07:47:29;69142.41;;;17.49;57.07
6859;BME280;3468;42.824;23.240;2024-02-23T07:49:56;69148.28;;;17.74;56.02
6859;BME280;3468;42.824;23.240;2024-02-23T07:52:23;69113.69;;;17.33;56.13
6859;BME280;3468;42.824;23.240;2024-02-23T07:54:50;69111.66;;;17.49;55.35
6859;BME280;3468;42.824;23.240;2024-02-23T07:57:18;69134.44;;;17.81;54.72
6859;BME280;3468;42.824;23.240;2024-02-23T07:59:46;69136.31;;;17.57;56.31
6859;BME280;3468;42.824;23.240;2024-02-23T08:02:14;69127.50;;;17.76;53.64
6859;BME280;3468;42.824;23.240;2024-02-23T08:04:41;69121.88;;;17.79;52.75
6859;BME280;3468;42.824;23.240;2024-02-23T08:07:08;69118.38;;;17.57;54.05
6859;BME280;3468;42.824;23.240;2024-02-23T08:09:34;69112.53;;;17.82;53.86
6859;BME280;3468;42.824;23.240;2024-02-23T08:12:01;69163.22;;;17.97;52.81
6859;BME280;3468;42.824;23.240;2024-02-23T08:14:28;69191.97;;;18.28;52.56
6859;BME280;3468;42.824;23.240;2024-02-23T08:16:57;69206.63;;;18.34;52.26
6859;BME280;3468;42.824;23.240;2024-02-23T08:19:24;69172.44;;;18.36;52.27
6859;BME280;3468;42.824;23.240;2024-02-23T08:21:50;69174.28;;;18.11;50.51
6859;BME280;3468;42.824;23.240;2024-02-23T08:24:17;69129.44;;;17.55;52.25
6859;BME280;3468;42.824;23.240;2024-02-23T08:26:44;69158.19;;;17.56;51.48
6859;BME280;3468;42.824;23.240;2024-02-23T08:29:10;69111.41;;;17.51;51.59
6859;BME280;3468;42.824;23.240;2024-02-23T08:31:37;69145.13;;;17.73;52.06
6859;BME280;3468;42.824;23.240;2024-02-23T08:34:05;69121.72;;;17.71;51.26
6859;BME280;3468;42.824;23.240;2024-02-23T08:36:32;69165.53;;;17.84;52.05
6859;BME280;3468;42.824;23.240;2024-02-23T08:38:59;69123.97;;;17.68;51.68
6859;BME280;3468;42.824;23.240;2024-02-23T08:41:25;69159.84;;;17.83;52.34
6859;BME280;3468;42.824;23.240;2024-02-23T08:43:52;69184.28;;;17.98;51.66
6859;BME280;3468;42.824;23.240;2024-02-23T08:46:20;69167.44;;;17.94;51.04
6859;BME280;3468;42.824;23.240;2024-02-23T08:48:48;69160.25;;;17.90;51.78
6859;BME280;3468;42.824;23.240;2024-02-23T08:51:16;69154.50;;;17.55;50.96
6859;BME280;3468;42.824;23.240;2024-02-23T08:53:43;69083.75;;;17.16;52.33
6859;BME280;3468;42.824;23.240;2024-02-23T08:56:10;69011.94;;;16.46;53.34
6859;BME280;3468;42.824;23.240;2024-02-23T08:58:37;68934.94;;;15.71;56.35
6859;BME280;3468;42.824;23.240;2024-02-23T09:01:04;68877.97;;;15.16;58.25
6859;BME280;3468;42.824;23.240;2024-02-23T09:03:31;68860.97;;;15.04;58.07
6859;BME280;3468;42.824;23.240;2024-02-23T09:05:58;68863.63;;;15.08;59.71
6859;BME280;3468;42.824;23.240;2024-02-23T09:08:26;68879.03;;;15.13;59.54
6859;BME280;3468;42.824;23.240;2024-02-23T09:10:52;68855.34;;;15.34;60.56
6859;BME280;3468;42.824;23.240;2024-02-23T09:13:19;68847.53;;;15.71;59.30
6859;BME280;3468;42.824;23.240;2024-02-23T09:15:46;68884.00;;;15.34;57.66
6859;BME280;3468;42.824;23.240;2024-02-23T09:18:12;68870.19;;;15.12;59.01
6859;BME280;3468;42.824;23.240;2024-02-23T09:20:39;68869.56;;;14.81;60.75
6859;BME280;3468;42.824;23.240;2024-02-23T09:23:06;68795.66;;;14.70;60.88
6859;BME280;3468;42.824;23.240;2024-02-23T09:25:34;68931.63;;;14.42;59.81
6859;BME280;3468;42.824;23.240;2024-02-23T09:28:01;68841.66;;;14.74;60.08
6859;BME280;3468;42.824;23.240;2024-02-23T09:30:28;68867.59;;;14.81;60.38
6859;BME280;3468;42.824;23.240;2024-02-23T09:32:54;68861.63;;;15.09;60.75
6859;BME280;3468;42.824;23.240;2024-02-23T09:35:21;68840.22;;;14.60;60.16
6859;BME280;3468;42.824;23.240;2024-02-23T09:37:48;68801.00;;;14.52;60.47
6859;BME280;3468;42.824;23.240;2024-02-23T09:40:15;68837.91;;;14.58;60.97
6859;BME280;3468;42.824;23.240;2024-02-23T09:42:48;68859.91;;;14.66;61.13
6859;BME280;3468;42.824;23.240;2024-02-23T09:45:21;68836.69;;;14.52;61.63
6859;BME280;3468;42.824;23.240;2024-02-23T09:47:48;68849.38;;;14.63;60.43
6859;BME280;3468;42.824;23.240;2024-02-23T09:50:16;68854.34;;;14.85;61.52
6859;BME280;3468;42.824;23.240;2024-02-23T09:52:47;68775.00;;;14.56;60.28
6859;BME280;3468;42.824;23.240;2024-02-23T09:55:16;68854.38;;;15.00;58.95
6859;BME280;3468;42.824;23.240;2024-02-23T09:57:44;68862.78;;;14.94;57.94
6859;BME280;3468;42.824;23.240;2024-02-23T10:00:12;68833.78;;;14.76;58.21
6859;BME280;3468;42.824;23.240;2024-02-23T10:02:43;68802.19;;;14.69;58.51
6859;BME280;3468;42.824;23.240;2024-02-23T10:05:10;68790.94;;;14.46;60.07
6859;BME280;3468;42.824;23.240;2024-02-23T10:07:37;68836.78;;;14.57;58.74
6859;BME280;3468;42.824;23.240;2024-02-23T10:10:06;68827.06;;;14.53;59.81
6859;BME280;3468;42.824;23.240;2024-02-23T10:12:33;68847.69;;;14.51;59.66
6859;BME280;3468;42.824;23.240;2024-02-23T10:15:02;68834.38;;;14.50;58.99
6859;BME280;3468;42.824;23.240;2024-02-23T10:17:29;68821.97;;;14.53;59.41
6859;BME280;3468;42.824;23.240;2024-02-23T10:19:56;68804.88;;;14.62;58.32
6859;BME280;3468;42.824;23.240;2024-02-23T10:22:24;68807.09;;;14.75;59.87
6859;BME280;3468;42.824;23.240;2024-02-23T10:24:53;68842.75;;;14.86;58.57
6859;BME280;3468;42.824;23.240;2024-02-23T10:27:21;68846.16;;;15.00;58.92
6859;BME280;3468;42.824;23.240;2024-02-23T10:29:49;68881.06;;;15.01;57.23
6859;BME280;3468;42.824;23.240;2024-02-23T10:32:19;68854.53;;;14.94;58.21
6859;BME280;3468;42.824;23.240;2024-02-23T10:34:48;68866.75;;;15.09;58.42
6859;BME280;3468;42.824;23.240;2024-02-23T10:37:16;68886.78;;;15.17;58.64
6859;BME280;3468;42.824;23.240;2024-02-23T10:39:42;68884.25;;;15.48;57.60
6859;BME280;3468;42.824;23.240;2024-02-23T10:42:10;68930.34;;;15.68;57.73
6859;BME280;3468;42.824;23.240;2024-02-23T10:44:39;68893.75;;;15.69;55.67
6859;BME280;3468;42.824;23.240;2024-02-23T10:47:06;68901.97;;;15.39;56.36
6859;BME280;3468;42.824;23.240;2024-02-23T10:49:36;68907.22;;;15.32;57.70
6859;BME280;3468;42.824;23.240;2024-02-23T10:52:06;68940.53;;;15.52;56.99
6859;BME280;3468;42.824;23.240;2024-02-23T10:54:34;68924.97;;;15.54;56.21
6859;BME280;3468;42.824;23.240;2024-02-23T10:57:01;68904.38;;;15.76;55.69
6859;BME280;3468;42.824;23.240;2024-02-23T10:59:28;68973.63;;;16.05;55.34
6859;BME280;3468;42.824;23.240;2024-02-23T11:01:55;68961.00;;;15.98;55.06
6859;BME280;3468;42.824;23.240;2024-02-23T11:04:25;68960.75;;;15.85;56.30
6859;BME280;3468;42.824;23.240;2024-02-23T11:06:54;68949.66;;;16.13;57.50
6859;BME280;3468;42.824;23.240;2024-02-23T11:09:24;68975.97;;;16.22;54.88
6859;BME280;3468;42.824;23.240;2024-02-23T11:11:54;68968.63;;;16.09;54.92
6859;BME280;3468;42.824;23.240;2024-02-23T11:14:31;68942.53;;;15.82;53.86
6859;BME280;3468;42.824;23.240;2024-02-23T11:16:58;68925.81;;;15.83;54.81
6859;BME280;3468;42.824;23.240;2024-02-23T11:19:32;68963.63;;;15.72;54.21
6859;BME280;3468;42.824;23.240;2024-02-23T11:22:01;68921.50;;;15.67;54.87
6859;BME280;3468;42.824;23.240;2024-02-23T11:24:29;68943.13;;;15.83;54.68
6859;BME280;3468;42.824;23.240;2024-02-23T11:26:57;68958.91;;;16.20;53.41
6859;BME280;3468;42.824;23.240;2024-02-23T11:29:26;68953.69;;;16.01;54.26
6859;BME280;3468;42.824;23.240;2024-02-23T11:31:53;68947.25;;;16.06;54.51
6859;BME280;3468;42.824;23.240;2024-02-23T11:34:26;69009.38;;;16.46;55.63
6859;BME280;3468;42.824;23.240;2024-02-23T11:36:53;68970.94;;;16.11;53.08
6859;BME280;3468;42.824;23.240;2024-02-23T11:39:22;68982.28;;;16.12;54.66
6859;BME280;3468;42.824;23.240;2024-02-23T11:41:50;68957.75;;;16.19;54.77
6859;BME280;3468;42.824;23.240;2024-02-23T11:44:16;68894.81;;;15.96;54.09
6859;BME280;3468;42.824;23.240;2024-02-23T11:46:44;69027.28;;;16.46;54.74
6859;BME280;3468;42.824;23.240;2024-02-23T11:49:12;69030.44;;;16.62;53.50
6859;BME280;3468;42.824;23.240;2024-02-23T11:51:38;68996.91;;;16.64;52.84
6859;BME280;3468;42.824;23.240;2024-02-23T11:54:06;69002.59;;;16.80;52.81
6859;BME280;3468;42.824;23.240;2024-02-23T11:56:34;69062.09;;;17.15;53.67
6859;BME280;3468;42.824;23.240;2024-02-23T11:59:01;69142.91;;;17.76;52.47
6859;BME280;3468;42.824;23.240;2024-02-23T12:01:29;69135.34;;;17.84;50.13
6859;BME280;3468;42.824;23.240;2024-02-23T12:03:57;69167.25;;;18.16;48.87
6859;BME280;3468;42.824;23.240;2024-02-23T12:06:24;69204.09;;;18.39;50.31
6859;BME280;3468;42.824;23.240;2024-02-23T12:08:54;69168.00;;;18.10;47.74
6859;BME280;3468;42.824;23.240;2024-02-23T12:11:21;69151.94;;;18.05;49.42
6859;BME280;3468;42.824;23.240;2024-02-23T12:13:49;69091.97;;;17.63;49.29
6859;BME280;3468;42.824;23.240;2024-02-23T12:16:16;69133.16;;;17.72;49.50
6859;BME280;3468;42.824;23.240;2024-02-23T12:18:43;69142.63;;;17.78;49.29
6859;BME280;3468;42.824;23.240;2024-02-23T12:21:10;69155.13;;;17.90;48.63
6859;BME280;3468;42.824;23.240;2024-02-23T12:23:41;69160.88;;;18.26;48.13
6859;BME280;3468;42.824;23.240;2024-02-23T12:26:08;69203.78;;;18.36;48.51
6859;BME280;3468;42.824;23.240;2024-02-23T12:28:35;69204.59;;;18.50;46.91
6859;BME280;3468;42.824;23.240;2024-02-23T12:31:04;69199.56;;;18.39;47.32
6859;BME280;3468;42.824;23.240;2024-02-23T12:33:32;69184.59;;;18.31;47.42
6859;BME280;3468;42.824;23.240;2024-02-23T12:35:59;69113.56;;;17.59;47.44
6859;BME280;3468;42.824;23.240;2024-02-23T12:38:27;69181.22;;;18.02;48.29
6859;BME280;3468;42.824;23.240;2024-02-23T12:40:54;69158.94;;;17.80;48.14
6859;BME280;3468;42.824;23.240;2024-02-23T12:43:21;69172.53;;;18.25;48.18
6859;BME280;3468;42.824;23.240;2024-02-23T12:45:49;69182.84;;;18.45;47.04
6859;BME280;3468;42.824;23.240;2024-02-23T12:48:18;69198.69;;;18.21;46.83
6859;BME280;3468;42.824;23.240;2024-02-23T12:50:45;69149.31;;;18.16;46.68
6859;BME280;3468;42.824;23.240;2024-02-23T12:53:31;69157.75;;;18.10;46.46
6859;BME280;3468;42.824;23.240;2024-02-23T12:55:59;69185.28;;;18.21;47.35
6859;BME280;3468;42.824;23.240;2024-02-23T12:58:26;69124.34;;;17.90;46.33
6859;BME280;3468;42.824;23.240;2024-02-23T13:00:52;69153.66;;;18.22;47.25
6859;BME280;3468;42.824;23.240;2024-02-23T13:03:21;69177.72;;;18.64;45.93
6859;BME280;3468;42.824;23.240;2024-02-23T13:05:47;69213.84;;;18.58;46.64
6859;BME280;3468;42.824;23.240;2024-02-23T13:08:14;69168.44;;;18.37;46.04
6859;BME280;3468;42.824;23.240;2024-02-23T13:10:41;69169.81;;;18.51;47.56